• Join FlightAware (Why Join?)
  • Login
  • US Flag 
07:28AM EDT


 

Airport Tracker/Info


-or-


 

Live Flight TrackerFlight Track Log ✈ EGF4383 ✈ 23-Apr-2013 ✈ KCHO - KORD

Flight Track Log - Related Links

Times and Time Zones

All times are in EDT time to prevent confusion due to time zone crossing. See the EGF4383 flight status page for this flight to view local times or setup timezone preferences in your user account.

Time Position Orientation Groundspeed Altitude Reporting Facility
EDT Latitude Longitude Course Direction KTS MPH feet Rate Location/Type
06:17PM 38.1833 -78.4333 294° West 180 207 2,600  Level Potomac TRACON
06:18PM 38.2139 -78.4617 324° Northwest 198 228 4,200 2,160 Climbing Washington Center
06:19PM 38.2502 -78.7839 299° West  Level FlightAware Approximate
06:19PM 38.2331 -78.5417 287° West 210 242 6,400  Level Washington Center
06:20PM 38.2968 -78.8926 299° West  Level FlightAware Approximate
06:20PM 38.2603 -78.6169 295° West 246 283 9,100  Level Washington Center
06:21PM 38.3426 -79.0020 298° West  Level FlightAware Approximate
06:21PM 38.2894 -78.7000 294° West 257 296 11,100  Level Washington Center
06:22PM 38.3876 -79.1120 294° West  Level FlightAware Approximate
06:22PM 38.3244 -78.7994 294° West 276 318 12,800  Level Washington Center
06:23PM 38.4276 -79.2251 294° West  Level FlightAware Approximate
06:23PM 38.3633 -78.9044 295° West 308 354 14,300  Level Washington Center
06:24PM 38.4056 -79.0308 293° West 339 390 16,000 1,620 Climbing Washington Center
06:25PM 38.4461 -79.1442 295° West 352 405 17,600 1,500 Climbing Washington Center
06:26PM 38.4861 -79.2628 293° West 358 412 19,100 1,320 Climbing Washington Center
06:27PM 38.5225 -79.3681 294° West 363 418 20,300 1,200 Climbing Washington Center
06:28PM 38.5664 -79.4950 294° West 370 426 21,500 840 Climbing Washington Center
06:29PM 38.6122 -79.6250 294° West 388 447 22,000 240 Climbing Washington Center
06:30PM 38.6633 -79.7742 294° West 407 468 22,000  Level Washington Center
06:31PM 38.7086 -79.9097 293° West 412 474 22,000  Level Washington Center
06:33PM 38.8106 -80.2106 294° West 418 481 22,000  Level Indianapolis Center
06:34PM 38.8572 -80.3469 294° West 417 480 22,000  Level Indianapolis Center
06:35PM 38.9022 -80.4839 293° West 417 480 22,000 180 Level Indianapolis Center
06:36PM 38.9569 -80.6472 293° West 418 481 22,400 480 Climbing Indianapolis Center
06:38PM 39.0108 -80.7756 298° West 412 474 23,000 240 Climbing Indianapolis Center
06:39PM 39.0753 -80.8986 304° West 416 479 23,000  Level Indianapolis Center
06:40PM 39.1439 -81.0225 306° West 424 488 23,000  Level Indianapolis Center
06:41PM 39.2128 -81.1486 305° West 430 495 23,000  Level Indianapolis Center
06:42PM 39.2808 -81.2744 305° West 431 496 23,100 1,020 Climbing Indianapolis Center
06:43PM 39.3608 -81.4183 306° West 413 475 25,200 1,380 Climbing Indianapolis Center
06:44PM 39.4250 -81.5319 306° West 397 457 26,000 360 Climbing Indianapolis Center
06:45PM 39.4850 -81.6561 302° West 408 470 26,000  Level Indianapolis Center
06:46PM 39.5411 -81.7844 300° West 411 473 26,000  Level Indianapolis Center
06:47PM 39.5997 -81.9153 300° West 419 482 26,000  Level Indianapolis Center
06:48PM 39.6581 -82.0475 300° West 422 486 26,000 240 Level Indianapolis Center
06:49PM 39.7244 -82.1992 300° West 418 481 26,500 900 Climbing Indianapolis Center
06:50PM 39.7800 -82.3219 301° West 394 453 27,900 720 Climbing Indianapolis Center
06:51PM 39.8331 -82.4467 299° West 392 451 28,000 240 Climbing Indianapolis Center
06:52PM 39.8897 -82.5731 300° West 400 460 28,500 480 Climbing Indianapolis Center
06:53PM 39.9436 -82.7000 299° West 397 457 29,000 240 Climbing Indianapolis Center
06:54PM 40.0069 -82.8467 299° West 398 458 29,000  Level Indianapolis Center
06:55PM 40.0608 -82.9700 300° West 391 450 29,000 300 Level Indianapolis Center
06:56PM 40.1133 -83.0919 299° West 385 443 29,700 480 Climbing Indianapolis Center
06:57PM 40.1633 -83.2111 299° West 375 432 30,000 120 Climbing Indianapolis Center
06:58PM 40.2156 -83.3331 299° West 382 440 30,000  Level Indianapolis Center
06:59PM 40.2683 -83.4572 299° West 388 447 30,000  Level Indianapolis Center
07:00PM 40.3294 -83.6044 299° West 392 451 30,000  Level Indianapolis Center
07:01PM 40.3839 -83.7311 299° West 395 455 30,000  Level Indianapolis Center
07:02PM 40.4372 -83.8592 299° West 397 457 30,000  Level Indianapolis Center
07:03PM 40.4906 -83.9872 299° West 398 458 30,000  Level Indianapolis Center
07:04PM 40.5439 -84.1153 299° West 397 457 30,000  Level Indianapolis Center
07:05PM 40.5969 -84.2439 299° West 396 456 30,000  Level Indianapolis Center
07:06PM 40.6503 -84.3725 299° West 398 458 30,000  Level Indianapolis Center
07:07PM 40.7119 -84.5233 298° West 398 458 30,000  Level Indianapolis Center
07:09PM 40.7642 -84.6539 298° West 398 458 30,000  Level Chicago Center
07:10PM 40.8169 -84.7814 299° West 396 456 30,000  Level Chicago Center
07:11PM 40.8703 -84.9106 299° West 399 459 30,000  Level Chicago Center
07:12PM 40.9253 -85.0378 300° West 399 459 30,000  Level Chicago Center
07:13PM 40.9897 -85.1892 299° West 395 455 30,000  Level Chicago Center
07:14PM 41.0419 -85.3133 299° West 389 448 30,000  Level Chicago Center
07:15PM 41.0939 -85.4369 299° West 383 441 30,000 -720 Level Chicago Center
07:16PM 41.1461 -85.5600 299° West 381 438 28,600 -1,860 Descending Chicago Center
07:17PM 41.1964 -85.6797 299° West 372 428 26,200 -1,800 Descending Chicago Center
07:18PM 41.2403 -85.7869 299° West 332 382 25,000 -600 Descending Chicago Center
07:19PM 41.2719 -85.8917 292° West 311 358 25,000 -360 Level Chicago Center
07:20PM 41.2822 -86.0225 276° West 298 343 24,300 -960 Descending Chicago Center
07:21PM 41.2942 -86.1417 278° West 321 369 23,100 -1,140 Descending Chicago Center
07:22PM 41.3097 -86.2650 280° West 334 384 22,000 -780 Descending Chicago Center
07:23PM 41.3319 -86.3803 284° West 332 382 21,500 -1,080 Descending Chicago Center
07:24PM 41.3989 -86.4689 315° West 342 394 19,800 -2,100 Descending Chicago Center
07:25PM 41.4667 -86.5517 318° Northwest 333 383 17,200 -2,700 Descending Chicago Center
07:26PM 41.5333 -86.6375 316° Northwest 332 382 14,300 -2,460 Descending Chicago Center
07:27PM 41.6192 -86.7469 316° Northwest 347 399 12,200 -1,140 Descending Chicago Center
07:28PM 41.7092 -86.8061 334° Northwest 381 438 12,000 -120 Descending Chicago Center
07:29PM 41.8158 -86.8197 355° North 388 447 12,000 -180 Level Chicago Center
07:30PM 41.8939 -86.8800 330° Northwest 353 406 11,700 -720 Descending Chicago Center
07:31PM 41.9322 -86.9911 295° West 334 384 10,600 -840 Descending Chicago Center
07:32PM 41.9742 -87.1214 293° West 321 369 10,000 -600 Descending Chicago Center
07:33PM 41.9658 -87.2122 263° West 255 293 9,400 -840 Descending Chicago Center
07:34PM 41.9694 -87.3056 273° West 249 287 8,300 -1,080 Descending Chicago Center
07:35PM 41.9689 -87.3986 270° West 251 289 7,300 -960 Descending Chicago Center
07:36PM 41.9667 -87.4333 265° West 256 295 7,100 -720 Descending Chicago TRACON
07:37PM 41.9667 -87.5333 270° West 257 296 6,400 -1,140 Descending Chicago TRACON
07:38PM 41.9667 -87.6167 270° West 254 292 4,900 -1,500 Descending Chicago TRACON
07:39PM 41.9667 -87.7000 270° West 203 234 3,400 -1,500 Descending Chicago TRACON